sensor_id;sensor_type;location;lat;lon;timestamp;P1;durP1;ratioP1;P2;durP2;ratioP2
14316;SDS011;7242;50.858;6.586;2022-08-21T00:00:36;11.77;;;6.50;;
14316;SDS011;7242;50.858;6.586;2022-08-21T00:03:38;13.70;;;6.00;;
14316;SDS011;7242;50.858;6.586;2022-08-21T00:06:39;11.17;;;6.47;;
14316;SDS011;7242;50.858;6.586;2022-08-21T00:09:39;8.13;;;5.80;;
14316;SDS011;7242;50.858;6.586;2022-08-21T00:12:41;12.37;;;6.00;;
14316;SDS011;7242;50.858;6.586;2022-08-21T00:20:06;12.10;;;6.60;;
14316;SDS011;7242;50.858;6.586;2022-08-21T00:23:10;12.23;;;6.37;;
14316;SDS011;7242;50.858;6.586;2022-08-21T00:26:11;10.70;;;6.17;;
14316;SDS011;7242;50.858;6.586;2022-08-21T00:29:12;9.90;;;6.60;;
14316;SDS011;7242;50.858;6.586;2022-08-21T00:32:18;7.80;;;6.40;;
14316;SDS011;7242;50.858;6.586;2022-08-21T00:35:24;8.50;;;6.40;;
14316;SDS011;7242;50.858;6.586;2022-08-21T00:38:27;7.23;;;5.90;;
14316;SDS011;7242;50.858;6.586;2022-08-21T00:41:28;8.53;;;6.73;;
14316;SDS011;7242;50.858;6.586;2022-08-21T00:44:29;9.13;;;6.03;;
14316;SDS011;7242;50.858;6.586;2022-08-21T00:47:31;11.07;;;6.57;;
14316;SDS011;7242;50.858;6.586;2022-08-21T00:50:32;11.73;;;6.77;;
14316;SDS011;7242;50.858;6.586;2022-08-21T00:53:36;11.63;;;6.47;;
14316;SDS011;7242;50.858;6.586;2022-08-21T00:56:39;10.87;;;6.43;;
14316;SDS011;7242;50.858;6.586;2022-08-21T00:59:40;8.77;;;5.83;;
14316;SDS011;7242;50.858;6.586;2022-08-21T01:02:43;7.97;;;5.60;;
14316;SDS011;7242;50.858;6.586;2022-08-21T01:05:45;8.33;;;5.43;;
14316;SDS011;7242;50.858;6.586;2022-08-21T01:08:51;9.03;;;5.70;;
14316;SDS011;7242;50.858;6.586;2022-08-21T01:11:55;8.27;;;5.23;;
14316;SDS011;7242;50.858;6.586;2022-08-21T01:14:56;8.73;;;5.30;;
14316;SDS011;7242;50.858;6.586;2022-08-21T01:17:59;9.10;;;5.80;;
14316;SDS011;7242;50.858;6.586;2022-08-21T01:24:02;8.87;;;6.00;;
14316;SDS011;7242;50.858;6.586;2022-08-21T01:27:03;8.33;;;5.87;;
14316;SDS011;7242;50.858;6.586;2022-08-21T01:30:09;10.07;;;6.27;;
14316;SDS011;7242;50.858;6.586;2022-08-21T01:33:12;9.80;;;5.50;;
14316;SDS011;7242;50.858;6.586;2022-08-21T01:36:13;9.00;;;5.40;;
14316;SDS011;7242;50.858;6.586;2022-08-21T01:39:15;8.23;;;5.17;;
14316;SDS011;7242;50.858;6.586;2022-08-21T01:42:16;7.63;;;5.63;;
14316;SDS011;7242;50.858;6.586;2022-08-21T01:45:17;8.40;;;5.20;;
14316;SDS011;7242;50.858;6.586;2022-08-21T01:48:18;6.33;;;5.03;;
14316;SDS011;7242;50.858;6.586;2022-08-21T01:51:19;7.63;;;5.30;;
14316;SDS011;7242;50.858;6.586;2022-08-21T01:54:20;7.90;;;5.33;;
14316;SDS011;7242;50.858;6.586;2022-08-21T01:57:20;7.67;;;5.50;;
14316;SDS011;7242;50.858;6.586;2022-08-21T02:00:22;10.50;;;5.07;;
14316;SDS011;7242;50.858;6.586;2022-08-21T02:03:23;8.30;;;5.20;;
14316;SDS011;7242;50.858;6.586;2022-08-21T02:06:24;9.47;;;5.70;;
14316;SDS011;7242;50.858;6.586;2022-08-21T02:09:25;7.90;;;5.10;;
14316;SDS011;7242;50.858;6.586;2022-08-21T02:12:26;10.23;;;6.00;;
14316;SDS011;7242;50.858;6.586;2022-08-21T02:15:28;6.47;;;5.00;;
14316;SDS011;7242;50.858;6.586;2022-08-21T02:18:30;9.07;;;5.97;;
14316;SDS011;7242;50.858;6.586;2022-08-21T02:21:31;10.77;;;5.67;;
14316;SDS011;7242;50.858;6.586;2022-08-21T02:24:31;9.70;;;5.47;;
14316;SDS011;7242;50.858;6.586;2022-08-21T02:27:40;7.00;;;5.07;;
14316;SDS011;7242;50.858;6.586;2022-08-21T02:30:43;9.30;;;5.67;;
14316;SDS011;7242;50.858;6.586;2022-08-21T02:33:46;7.73;;;5.73;;
14316;SDS011;7242;50.858;6.586;2022-08-21T02:36:47;6.97;;;5.33;;
14316;SDS011;7242;50.858;6.586;2022-08-21T02:39:47;9.63;;;5.80;;
14316;SDS011;7242;50.858;6.586;2022-08-21T02:42:48;8.03;;;5.50;;
14316;SDS011;7242;50.858;6.586;2022-08-21T02:45:50;9.93;;;5.50;;
14316;SDS011;7242;50.858;6.586;2022-08-21T02:48:51;7.10;;;4.90;;
14316;SDS011;7242;50.858;6.586;2022-08-21T02:51:52;9.37;;;5.43;;
14316;SDS011;7242;50.858;6.586;2022-08-21T02:54:53;8.23;;;5.30;;
14316;SDS011;7242;50.858;6.586;2022-08-21T02:57:54;8.47;;;5.70;;
14316;SDS011;7242;50.858;6.586;2022-08-21T03:00:56;6.07;;;5.00;;
14316;SDS011;7242;50.858;6.586;2022-08-21T03:03:59;7.90;;;5.40;;
14316;SDS011;7242;50.858;6.586;2022-08-21T03:07:00;7.77;;;4.83;;
14316;SDS011;7242;50.858;6.586;2022-08-21T03:10:02;7.30;;;5.53;;
14316;SDS011;7242;50.858;6.586;2022-08-21T03:13:03;6.60;;;4.93;;
14316;SDS011;7242;50.858;6.586;2022-08-21T03:16:05;8.00;;;4.90;;
14316;SDS011;7242;50.858;6.586;2022-08-21T03:19:06;8.50;;;5.50;;
14316;SDS011;7242;50.858;6.586;2022-08-21T03:22:07;9.47;;;5.90;;
14316;SDS011;7242;50.858;6.586;2022-08-21T03:25:08;7.57;;;5.60;;
14316;SDS011;7242;50.858;6.586;2022-08-21T03:28:13;10.13;;;6.10;;
14316;SDS011;7242;50.858;6.586;2022-08-21T03:31:16;9.33;;;6.17;;
14316;SDS011;7242;50.858;6.586;2022-08-21T03:34:17;7.97;;;5.87;;
14316;SDS011;7242;50.858;6.586;2022-08-21T03:37:18;9.60;;;5.87;;
14316;SDS011;7242;50.858;6.586;2022-08-21T03:40:19;7.67;;;5.37;;
14316;SDS011;7242;50.858;6.586;2022-08-21T03:43:20;6.10;;;4.93;;
14316;SDS011;7242;50.858;6.586;2022-08-21T03:46:21;7.50;;;6.00;;
14316;SDS011;7242;50.858;6.586;2022-08-21T03:49:22;6.87;;;6.17;;
14316;SDS011;7242;50.858;6.586;2022-08-21T03:52:24;12.60;;;6.90;;
14316;SDS011;7242;50.858;6.586;2022-08-21T03:55:25;9.53;;;6.93;;
14316;SDS011;7242;50.858;6.586;2022-08-21T03:58:27;11.17;;;6.63;;
14316;SDS011;7242;50.858;6.586;2022-08-21T04:01:29;8.90;;;7.07;;
14316;SDS011;7242;50.858;6.586;2022-08-21T04:04:30;11.37;;;6.73;;
14316;SDS011;7242;50.858;6.586;2022-08-21T04:07:31;11.90;;;6.60;;
14316;SDS011;7242;50.858;6.586;2022-08-21T04:10:33;8.10;;;6.13;;
14316;SDS011;7242;50.858;6.586;2022-08-21T04:13:36;11.07;;;6.50;;
14316;SDS011;7242;50.858;6.586;2022-08-21T04:16:38;8.47;;;5.60;;
14316;SDS011;7242;50.858;6.586;2022-08-21T04:19:39;13.00;;;6.47;;
14316;SDS011;7242;50.858;6.586;2022-08-21T04:22:40;7.47;;;5.87;;
14316;SDS011;7242;50.858;6.586;2022-08-21T04:25:41;11.07;;;6.97;;
14316;SDS011;7242;50.858;6.586;2022-08-21T04:28:43;7.30;;;5.60;;
14316;SDS011;7242;50.858;6.586;2022-08-21T04:31:44;7.70;;;5.70;;
14316;SDS011;7242;50.858;6.586;2022-08-21T04:34:44;6.40;;;5.57;;
14316;SDS011;7242;50.858;6.586;2022-08-21T04:37:45;7.67;;;5.50;;
14316;SDS011;7242;50.858;6.586;2022-08-21T04:40:46;8.83;;;5.40;;
14316;SDS011;7242;50.858;6.586;2022-08-21T04:43:48;9.70;;;5.50;;
14316;SDS011;7242;50.858;6.586;2022-08-21T04:46:49;11.33;;;5.30;;
14316;SDS011;7242;50.858;6.586;2022-08-21T04:49:51;7.30;;;5.30;;
14316;SDS011;7242;50.858;6.586;2022-08-21T04:52:51;6.33;;;4.97;;
14316;SDS011;7242;50.858;6.586;2022-08-21T04:55:54;7.73;;;5.03;;
14316;SDS011;7242;50.858;6.586;2022-08-21T04:58:57;6.97;;;5.10;;
14316;SDS011;7242;50.858;6.586;2022-08-21T05:06:26;8.67;;;5.10;;
14316;SDS011;7242;50.858;6.586;2022-08-21T05:09:30;8.20;;;5.20;;
14316;SDS011;7242;50.858;6.586;2022-08-21T05:12:32;7.23;;;4.83;;
14316;SDS011;7242;50.858;6.586;2022-08-21T05:15:33;8.10;;;5.27;;
14316;SDS011;7242;50.858;6.586;2022-08-21T05:18:34;9.07;;;5.40;;
14316;SDS011;7242;50.858;6.586;2022-08-21T05:21:35;7.43;;;4.53;;
14316;SDS011;7242;50.858;6.586;2022-08-21T05:24:39;7.30;;;4.30;;
14316;SDS011;7242;50.858;6.586;2022-08-21T05:27:40;7.80;;;4.17;;
14316;SDS011;7242;50.858;6.586;2022-08-21T05:30:40;8.00;;;4.43;;
14316;SDS011;7242;50.858;6.586;2022-08-21T05:33:41;10.50;;;4.30;;
14316;SDS011;7242;50.858;6.586;2022-08-21T05:36:42;8.90;;;4.23;;
14316;SDS011;7242;50.858;6.586;2022-08-21T05:39:43;5.73;;;3.87;;
14316;SDS011;7242;50.858;6.586;2022-08-21T05:42:44;4.97;;;3.40;;
14316;SDS011;7242;50.858;6.586;2022-08-21T05:45:45;5.00;;;3.20;;
14316;SDS011;7242;50.858;6.586;2022-08-21T05:48:46;8.87;;;3.50;;
14316;SDS011;7242;50.858;6.586;2022-08-21T05:51:47;4.60;;;3.10;;
14316;SDS011;7242;50.858;6.586;2022-08-21T05:54:48;6.13;;;3.47;;
14316;SDS011;7242;50.858;6.586;2022-08-21T05:57:49;5.07;;;3.10;;
14316;SDS011;7242;50.858;6.586;2022-08-21T06:00:50;6.13;;;3.23;;
14316;SDS011;7242;50.858;6.586;2022-08-21T06:03:51;5.13;;;2.93;;
14316;SDS011;7242;50.858;6.586;2022-08-21T06:06:52;4.20;;;3.00;;
14316;SDS011;7242;50.858;6.586;2022-08-21T06:09:53;6.93;;;3.70;;
14316;SDS011;7242;50.858;6.586;2022-08-21T06:12:54;7.80;;;3.90;;
14316;SDS011;7242;50.858;6.586;2022-08-21T06:16:02;6.43;;;3.23;;
14316;SDS011;7242;50.858;6.586;2022-08-21T06:19:08;6.07;;;3.63;;
14316;SDS011;7242;50.858;6.586;2022-08-21T06:22:09;5.83;;;3.70;;
14316;SDS011;7242;50.858;6.586;2022-08-21T06:25:11;6.03;;;4.00;;
14316;SDS011;7242;50.858;6.586;2022-08-21T06:28:11;6.50;;;4.27;;
14316;SDS011;7242;50.858;6.586;2022-08-21T06:31:14;9.23;;;4.07;;
14316;SDS011;7242;50.858;6.586;2022-08-21T06:34:19;6.47;;;3.97;;
14316;SDS011;7242;50.858;6.586;2022-08-21T06:37:19;7.47;;;3.70;;
14316;SDS011;7242;50.858;6.586;2022-08-21T06:40:20;6.57;;;3.17;;
14316;SDS011;7242;50.858;6.586;2022-08-21T06:43:21;4.17;;;3.00;;
14316;SDS011;7242;50.858;6.586;2022-08-21T06:46:23;7.07;;;3.53;;
14316;SDS011;7242;50.858;6.586;2022-08-21T06:49:26;7.73;;;3.03;;
14316;SDS011;7242;50.858;6.586;2022-08-21T06:52:27;4.73;;;2.40;;
14316;SDS011;7242;50.858;6.586;2022-08-21T06:55:28;4.80;;;2.50;;
14316;SDS011;7242;50.858;6.586;2022-08-21T06:58:28;5.60;;;2.20;;
14316;SDS011;7242;50.858;6.586;2022-08-21T07:01:30;3.83;;;2.03;;
14316;SDS011;7242;50.858;6.586;2022-08-21T07:04:32;4.33;;;1.87;;
14316;SDS011;7242;50.858;6.586;2022-08-21T07:07:32;3.07;;;1.63;;
14316;SDS011;7242;50.858;6.586;2022-08-21T07:10:33;4.75;;;2.05;;
14316;SDS011;7242;50.858;6.586;2022-08-21T07:13:34;8.38;;;2.35;;
14316;SDS011;7242;50.858;6.586;2022-08-21T07:16:35;5.53;;;1.92;;
14316;SDS011;7242;50.858;6.586;2022-08-21T07:19:36;4.80;;;1.90;;
14316;SDS011;7242;50.858;6.586;2022-08-21T07:22:37;4.45;;;2.25;;
14316;SDS011;7242;50.858;6.586;2022-08-21T07:25:38;4.18;;;1.80;;
14316;SDS011;7242;50.858;6.586;2022-08-21T07:28:39;4.60;;;2.00;;
14316;SDS011;7242;50.858;6.586;2022-08-21T07:31:40;5.00;;;1.85;;
14316;SDS011;7242;50.858;6.586;2022-08-21T07:34:42;3.70;;;1.80;;
14316;SDS011;7242;50.858;6.586;2022-08-21T07:37:43;3.33;;;1.60;;
14316;SDS011;7242;50.858;6.586;2022-08-21T07:40:43;3.63;;;1.63;;
14316;SDS011;7242;50.858;6.586;2022-08-21T07:43:45;5.05;;;1.63;;
14316;SDS011;7242;50.858;6.586;2022-08-21T07:46:46;4.43;;;1.60;;
14316;SDS011;7242;50.858;6.586;2022-08-21T07:49:46;3.58;;;1.50;;
14316;SDS011;7242;50.858;6.586;2022-08-21T07:52:47;5.22;;;1.75;;
14316;SDS011;7242;50.858;6.586;2022-08-21T07:55:48;3.40;;;1.30;;
14316;SDS011;7242;50.858;6.586;2022-08-21T07:58:49;4.63;;;1.60;;
14316;SDS011;7242;50.858;6.586;2022-08-21T08:01:49;4.57;;;1.38;;
14316;SDS011;7242;50.858;6.586;2022-08-21T08:04:50;3.88;;;1.40;;
14316;SDS011;7242;50.858;6.586;2022-08-21T08:07:51;5.05;;;1.50;;
14316;SDS011;7242;50.858;6.586;2022-08-21T08:10:52;2.65;;;1.10;;
14316;SDS011;7242;50.858;6.586;2022-08-21T08:13:55;5.82;;;1.73;;
14316;SDS011;7242;50.858;6.586;2022-08-21T08:16:58;4.05;;;1.40;;
14316;SDS011;7242;50.858;6.586;2022-08-21T08:19:59;3.63;;;1.30;;
14316;SDS011;7242;50.858;6.586;2022-08-21T08:23:00;3.25;;;1.33;;
14316;SDS011;7242;50.858;6.586;2022-08-21T08:26:02;3.95;;;1.63;;
14316;SDS011;7242;50.858;6.586;2022-08-21T08:29:02;3.85;;;1.45;;
14316;SDS011;7242;50.858;6.586;2022-08-21T08:32:03;4.07;;;1.58;;
14316;SDS011;7242;50.858;6.586;2022-08-21T08:35:05;7.38;;;1.48;;
14316;SDS011;7242;50.858;6.586;2022-08-21T08:38:07;5.40;;;1.55;;
14316;SDS011;7242;50.858;6.586;2022-08-21T08:41:16;6.00;;;1.60;;
14316;SDS011;7242;50.858;6.586;2022-08-21T08:44:22;4.33;;;1.30;;
14316;SDS011;7242;50.858;6.586;2022-08-21T08:47:24;5.03;;;1.50;;
14316;SDS011;7242;50.858;6.586;2022-08-21T08:50:29;3.43;;;1.30;;
14316;SDS011;7242;50.858;6.586;2022-08-21T08:53:40;4.67;;;1.37;;
14316;SDS011;7242;50.858;6.586;2022-08-21T08:56:49;4.50;;;1.43;;
14316;SDS011;7242;50.858;6.586;2022-08-21T08:59:53;4.40;;;1.67;;
14316;SDS011;7242;50.858;6.586;2022-08-21T09:02:59;4.50;;;1.60;;
14316;SDS011;7242;50.858;6.586;2022-08-21T09:06:07;5.07;;;1.30;;
14316;SDS011;7242;50.858;6.586;2022-08-21T09:12:56;5.93;;;1.57;;
14316;SDS011;7242;50.858;6.586;2022-08-21T09:16:09;5.63;;;1.50;;
14316;SDS011;7242;50.858;6.586;2022-08-21T09:26:24;5.20;;;1.50;;
14316;SDS011;7242;50.858;6.586;2022-08-21T09:29:30;4.17;;;1.40;;
14316;SDS011;7242;50.858;6.586;2022-08-21T09:32:35;4.43;;;1.60;;
14316;SDS011;7242;50.858;6.586;2022-08-21T09:35:47;3.57;;;1.37;;
14316;SDS011;7242;50.858;6.586;2022-08-21T09:38:53;5.50;;;1.40;;
14316;SDS011;7242;50.858;6.586;2022-08-21T09:41:58;7.73;;;1.77;;
14316;SDS011;7242;50.858;6.586;2022-08-21T09:45:13;4.60;;;1.50;;
14316;SDS011;7242;50.858;6.586;2022-08-21T09:48:21;6.57;;;1.47;;
14316;SDS011;7242;50.858;6.586;2022-08-21T09:51:24;5.43;;;1.63;;
14316;SDS011;7242;50.858;6.586;2022-08-21T09:54:34;4.53;;;1.50;;
14316;SDS011;7242;50.858;6.586;2022-08-21T09:57:38;8.73;;;1.60;;
14316;SDS011;7242;50.858;6.586;2022-08-21T10:00:39;6.03;;;1.57;;
14316;SDS011;7242;50.858;6.586;2022-08-21T10:03:40;4.13;;;1.40;;
14316;SDS011;7242;50.858;6.586;2022-08-21T10:06:41;4.03;;;1.40;;
14316;SDS011;7242;50.858;6.586;2022-08-21T10:09:42;6.70;;;1.70;;
14316;SDS011;7242;50.858;6.586;2022-08-21T10:19:30;4.17;;;1.47;;
14316;SDS011;7242;50.858;6.586;2022-08-21T10:23:25;3.03;;;1.57;;
14316;SDS011;7242;50.858;6.586;2022-08-21T10:29:19;3.93;;;1.50;;
14316;SDS011;7242;50.858;6.586;2022-08-21T10:36:09;4.10;;;1.50;;
14316;SDS011;7242;50.858;6.586;2022-08-21T10:48:57;6.63;;;1.83;;
14316;SDS011;7242;50.858;6.586;2022-08-21T10:55:12;5.27;;;1.53;;
14316;SDS011;7242;50.858;6.586;2022-08-21T10:58:19;2.90;;;1.50;;
14316;SDS011;7242;50.858;6.586;2022-08-21T11:01:27;6.50;;;1.50;;
14316;SDS011;7242;50.858;6.586;2022-08-21T11:07:48;5.67;;;1.70;;
14316;SDS011;7242;50.858;6.586;2022-08-21T11:11:04;5.27;;;1.83;;
14316;SDS011;7242;50.858;6.586;2022-08-21T11:14:21;8.27;;;1.80;;
14316;SDS011;7242;50.858;6.586;2022-08-21T11:17:43;5.03;;;1.63;;
14316;SDS011;7242;50.858;6.586;2022-08-21T11:23:53;3.57;;;1.40;;
14316;SDS011;7242;50.858;6.586;2022-08-21T11:30:17;4.43;;;1.20;;
14316;SDS011;7242;50.858;6.586;2022-08-21T11:36:28;4.47;;;1.23;;
14316;SDS011;7242;50.858;6.586;2022-08-21T11:39:53;4.00;;;1.50;;
14316;SDS011;7242;50.858;6.586;2022-08-21T11:52:49;3.40;;;1.30;;
14316;SDS011;7242;50.858;6.586;2022-08-21T11:55:56;5.93;;;1.70;;
14316;SDS011;7242;50.858;6.586;2022-08-21T11:59:04;3.83;;;1.70;;
14316;SDS011;7242;50.858;6.586;2022-08-21T12:02:12;5.97;;;1.50;;
14316;SDS011;7242;50.858;6.586;2022-08-21T12:05:24;5.03;;;1.27;;
14316;SDS011;7242;50.858;6.586;2022-08-21T12:11:48;4.10;;;1.30;;
14316;SDS011;7242;50.858;6.586;2022-08-21T12:18:28;4.53;;;1.57;;
14316;SDS011;7242;50.858;6.586;2022-08-21T12:21:30;4.80;;;1.30;;
14316;SDS011;7242;50.858;6.586;2022-08-21T12:24:41;8.03;;;1.80;;
14316;SDS011;7242;50.858;6.586;2022-08-21T12:27:45;4.80;;;1.60;;
14316;SDS011;7242;50.858;6.586;2022-08-21T12:30:52;5.37;;;1.70;;
14316;SDS011;7242;50.858;6.586;2022-08-21T12:33:55;4.77;;;1.80;;
14316;SDS011;7242;50.858;6.586;2022-08-21T12:37:04;5.53;;;1.80;;
14316;SDS011;7242;50.858;6.586;2022-08-21T12:40:22;5.37;;;1.97;;
14316;SDS011;7242;50.858;6.586;2022-08-21T12:43:40;3.70;;;1.30;;
14316;SDS011;7242;50.858;6.586;2022-08-21T12:47:04;5.43;;;1.60;;
14316;SDS011;7242;50.858;6.586;2022-08-21T12:50:15;7.70;;;1.60;;
14316;SDS011;7242;50.858;6.586;2022-08-21T12:56:40;6.37;;;1.60;;
14316;SDS011;7242;50.858;6.586;2022-08-21T12:59:41;2.83;;;1.40;;
14316;SDS011;7242;50.858;6.586;2022-08-21T13:02:48;4.87;;;1.60;;
14316;SDS011;7242;50.858;6.586;2022-08-21T13:05:50;5.10;;;1.57;;
14316;SDS011;7242;50.858;6.586;2022-08-21T13:08:55;4.40;;;1.67;;
14316;SDS011;7242;50.858;6.586;2022-08-21T13:12:06;4.47;;;1.37;;
14316;SDS011;7242;50.858;6.586;2022-08-21T13:15:08;3.83;;;1.60;;
14316;SDS011;7242;50.858;6.586;2022-08-21T13:18:18;5.97;;;1.57;;
14316;SDS011;7242;50.858;6.586;2022-08-21T13:21:32;5.13;;;1.70;;
14316;SDS011;7242;50.858;6.586;2022-08-21T13:24:37;6.30;;;1.90;;
14316;SDS011;7242;50.858;6.586;2022-08-21T13:27:38;4.30;;;1.50;;
14316;SDS011;7242;50.858;6.586;2022-08-21T13:30:47;4.53;;;1.77;;
14316;SDS011;7242;50.858;6.586;2022-08-21T13:33:49;7.03;;;1.80;;
14316;SDS011;7242;50.858;6.586;2022-08-21T13:36:52;5.57;;;1.60;;
14316;SDS011;7242;50.858;6.586;2022-08-21T13:39:57;4.53;;;1.63;;
14316;SDS011;7242;50.858;6.586;2022-08-21T13:42:58;6.67;;;1.53;;
14316;SDS011;7242;50.858;6.586;2022-08-21T13:46:00;5.17;;;1.60;;
14316;SDS011;7242;50.858;6.586;2022-08-21T13:49:06;3.70;;;1.53;;
14316;SDS011;7242;50.858;6.586;2022-08-21T13:52:20;5.07;;;1.50;;
14316;SDS011;7242;50.858;6.586;2022-08-21T13:55:24;4.37;;;1.40;;
14316;SDS011;7242;50.858;6.586;2022-08-21T13:58:30;4.07;;;1.23;;
14316;SDS011;7242;50.858;6.586;2022-08-21T14:01:50;3.93;;;1.70;;
14316;SDS011;7242;50.858;6.586;2022-08-21T14:04:58;10.40;;;1.73;;
14316;SDS011;7242;50.858;6.586;2022-08-21T14:08:08;3.37;;;1.33;;
14316;SDS011;7242;50.858;6.586;2022-08-21T14:11:12;5.97;;;1.60;;
14316;SDS011;7242;50.858;6.586;2022-08-21T14:14:24;3.17;;;1.10;;
14316;SDS011;7242;50.858;6.586;2022-08-21T14:17:29;3.10;;;1.30;;
14316;SDS011;7242;50.858;6.586;2022-08-21T14:20:34;2.70;;;1.13;;
14316;SDS011;7242;50.858;6.586;2022-08-21T14:23:36;2.67;;;1.17;;
14316;SDS011;7242;50.858;6.586;2022-08-21T14:26:42;5.07;;;1.40;;
14316;SDS011;7242;50.858;6.586;2022-08-21T14:29:47;3.47;;;1.30;;
14316;SDS011;7242;50.858;6.586;2022-08-21T14:32:48;5.50;;;1.93;;
14316;SDS011;7242;50.858;6.586;2022-08-21T14:35:49;3.70;;;1.43;;
14316;SDS011;7242;50.858;6.586;2022-08-21T14:38:50;3.63;;;1.30;;
14316;SDS011;7242;50.858;6.586;2022-08-21T14:41:52;2.13;;;1.10;;
14316;SDS011;7242;50.858;6.586;2022-08-21T14:44:53;4.73;;;1.20;;
14316;SDS011;7242;50.858;6.586;2022-08-21T14:47:59;2.90;;;1.13;;
14316;SDS011;7242;50.858;6.586;2022-08-21T14:51:00;2.50;;;1.17;;
14316;SDS011;7242;50.858;6.586;2022-08-21T14:54:01;3.67;;;1.20;;
14316;SDS011;7242;50.858;6.586;2022-08-21T14:57:06;3.57;;;1.20;;
14316;SDS011;7242;50.858;6.586;2022-08-21T15:00:10;3.03;;;1.20;;
14316;SDS011;7242;50.858;6.586;2022-08-21T15:03:12;3.27;;;1.20;;
14316;SDS011;7242;50.858;6.586;2022-08-21T15:06:13;2.53;;;1.13;;
14316;SDS011;7242;50.858;6.586;2022-08-21T15:09:16;2.83;;;1.20;;
14316;SDS011;7242;50.858;6.586;2022-08-21T15:12:16;3.73;;;1.10;;
14316;SDS011;7242;50.858;6.586;2022-08-21T15:15:17;2.10;;;1.00;;
14316;SDS011;7242;50.858;6.586;2022-08-21T15:18:22;2.73;;;1.13;;
14316;SDS011;7242;50.858;6.586;2022-08-21T15:21:24;2.63;;;1.17;;
14316;SDS011;7242;50.858;6.586;2022-08-21T15:24:25;2.00;;;1.10;;
14316;SDS011;7242;50.858;6.586;2022-08-21T15:27:26;2.50;;;1.20;;
14316;SDS011;7242;50.858;6.586;2022-08-21T15:30:27;4.13;;;1.10;;
14316;SDS011;7242;50.858;6.586;2022-08-21T15:33:30;4.03;;;1.37;;
14316;SDS011;7242;50.858;6.586;2022-08-21T15:36:31;3.13;;;1.47;;
14316;SDS011;7242;50.858;6.586;2022-08-21T15:39:31;2.33;;;1.10;;
14316;SDS011;7242;50.858;6.586;2022-08-21T15:42:32;3.17;;;1.30;;
14316;SDS011;7242;50.858;6.586;2022-08-21T15:45:34;3.80;;;1.10;;
14316;SDS011;7242;50.858;6.586;2022-08-21T15:48:35;2.87;;;1.17;;
14316;SDS011;7242;50.858;6.586;2022-08-21T15:51:35;2.23;;;1.10;;
14316;SDS011;7242;50.858;6.586;2022-08-21T15:54:36;3.10;;;1.07;;
14316;SDS011;7242;50.858;6.586;2022-08-21T15:57:37;3.60;;;1.10;;
14316;SDS011;7242;50.858;6.586;2022-08-21T16:00:43;3.63;;;1.40;;
14316;SDS011;7242;50.858;6.586;2022-08-21T16:03:45;4.20;;;1.60;;
14316;SDS011;7242;50.858;6.586;2022-08-21T16:06:49;2.40;;;1.20;;
14316;SDS011;7242;50.858;6.586;2022-08-21T16:09:50;2.80;;;1.40;;
14316;SDS011;7242;50.858;6.586;2022-08-21T16:12:54;4.10;;;1.50;;
14316;SDS011;7242;50.858;6.586;2022-08-21T16:15:58;3.63;;;1.60;;
14316;SDS011;7242;50.858;6.586;2022-08-21T16:18:59;3.60;;;1.53;;
14316;SDS011;7242;50.858;6.586;2022-08-21T16:22:00;3.33;;;1.60;;
14316;SDS011;7242;50.858;6.586;2022-08-21T16:25:01;4.37;;;1.40;;
14316;SDS011;7242;50.858;6.586;2022-08-21T16:28:04;4.23;;;1.50;;
14316;SDS011;7242;50.858;6.586;2022-08-21T16:31:07;3.73;;;1.40;;
14316;SDS011;7242;50.858;6.586;2022-08-21T16:34:09;2.70;;;1.27;;
14316;SDS011;7242;50.858;6.586;2022-08-21T16:37:15;4.23;;;1.50;;
14316;SDS011;7242;50.858;6.586;2022-08-21T16:40:17;6.13;;;1.60;;
14316;SDS011;7242;50.858;6.586;2022-08-21T16:43:19;2.23;;;1.30;;
14316;SDS011;7242;50.858;6.586;2022-08-21T16:46:22;5.27;;;2.30;;
14316;SDS011;7242;50.858;6.586;2022-08-21T16:49:23;2.77;;;1.60;;
14316;SDS011;7242;50.858;6.586;2022-08-21T16:52:24;5.40;;;1.47;;
14316;SDS011;7242;50.858;6.586;2022-08-21T16:55:26;4.37;;;1.40;;
14316;SDS011;7242;50.858;6.586;2022-08-21T17:01:29;7.17;;;1.50;;
14316;SDS011;7242;50.858;6.586;2022-08-21T17:04:32;3.93;;;1.40;;
14316;SDS011;7242;50.858;6.586;2022-08-21T17:07:33;5.47;;;1.50;;
14316;SDS011;7242;50.858;6.586;2022-08-21T17:10:33;8.17;;;2.30;;
14316;SDS011;7242;50.858;6.586;2022-08-21T17:13:35;9.17;;;1.70;;
14316;SDS011;7242;50.858;6.586;2022-08-21T17:16:38;6.07;;;1.67;;
14316;SDS011;7242;50.858;6.586;2022-08-21T17:19:41;4.63;;;1.63;;
14316;SDS011;7242;50.858;6.586;2022-08-21T17:22:42;6.27;;;1.73;;
14316;SDS011;7242;50.858;6.586;2022-08-21T17:25:43;7.03;;;1.90;;
14316;SDS011;7242;50.858;6.586;2022-08-21T17:28:46;26.40;;;2.73;;
14316;SDS011;7242;50.858;6.586;2022-08-21T17:31:47;7.47;;;1.87;;
14316;SDS011;7242;50.858;6.586;2022-08-21T17:34:48;5.83;;;1.50;;
14316;SDS011;7242;50.858;6.586;2022-08-21T17:37:49;3.73;;;1.50;;
14316;SDS011;7242;50.858;6.586;2022-08-21T17:40:52;4.17;;;1.47;;
14316;SDS011;7242;50.858;6.586;2022-08-21T17:43:53;8.10;;;1.83;;
14316;SDS011;7242;50.858;6.586;2022-08-21T17:46:54;4.03;;;1.17;;
14316;SDS011;7242;50.858;6.586;2022-08-21T17:49:55;5.10;;;1.23;;
14316;SDS011;7242;50.858;6.586;2022-08-21T17:52:56;4.73;;;1.43;;
14316;SDS011;7242;50.858;6.586;2022-08-21T17:55:56;3.80;;;1.20;;
14316;SDS011;7242;50.858;6.586;2022-08-21T17:58:57;3.87;;;1.27;;
14316;SDS011;7242;50.858;6.586;2022-08-21T18:01:58;5.37;;;1.63;;
14316;SDS011;7242;50.858;6.586;2022-08-21T18:05:01;2.87;;;1.37;;
14316;SDS011;7242;50.858;6.586;2022-08-21T18:08:02;4.57;;;1.30;;
14316;SDS011;7242;50.858;6.586;2022-08-21T18:11:03;4.83;;;1.23;;
14316;SDS011;7242;50.858;6.586;2022-08-21T18:14:04;4.00;;;1.30;;
14316;SDS011;7242;50.858;6.586;2022-08-21T18:17:06;4.70;;;1.50;;
14316;SDS011;7242;50.858;6.586;2022-08-21T18:20:09;3.33;;;1.40;;
14316;SDS011;7242;50.858;6.586;2022-08-21T18:23:10;5.00;;;1.50;;
14316;SDS011;7242;50.858;6.586;2022-08-21T18:26:15;5.07;;;1.53;;
14316;SDS011;7242;50.858;6.586;2022-08-21T18:29:24;4.40;;;1.43;;
14316;SDS011;7242;50.858;6.586;2022-08-21T18:32:25;3.23;;;1.27;;
14316;SDS011;7242;50.858;6.586;2022-08-21T18:35:27;6.00;;;1.53;;
14316;SDS011;7242;50.858;6.586;2022-08-21T18:38:29;2.57;;;1.27;;
14316;SDS011;7242;50.858;6.586;2022-08-21T18:41:31;2.53;;;1.10;;
14316;SDS011;7242;50.858;6.586;2022-08-21T18:44:32;3.70;;;1.23;;
14316;SDS011;7242;50.858;6.586;2022-08-21T18:47:35;3.10;;;1.47;;
14316;SDS011;7242;50.858;6.586;2022-08-21T18:50:41;2.27;;;1.30;;
14316;SDS011;7242;50.858;6.586;2022-08-21T18:53:44;3.00;;;1.10;;
14316;SDS011;7242;50.858;6.586;2022-08-21T18:56:45;3.63;;;1.27;;
14316;SDS011;7242;50.858;6.586;2022-08-21T18:59:46;3.03;;;1.10;;
14316;SDS011;7242;50.858;6.586;2022-08-21T19:02:47;3.67;;;1.20;;
14316;SDS011;7242;50.858;6.586;2022-08-21T19:05:49;3.97;;;1.40;;
14316;SDS011;7242;50.858;6.586;2022-08-21T19:08:51;2.40;;;1.17;;
14316;SDS011;7242;50.858;6.586;2022-08-21T19:11:52;3.80;;;1.20;;
14316;SDS011;7242;50.858;6.586;2022-08-21T19:14:53;1.73;;;1.10;;
14316;SDS011;7242;50.858;6.586;2022-08-21T19:17:54;3.53;;;1.30;;
14316;SDS011;7242;50.858;6.586;2022-08-21T19:20:55;4.73;;;1.70;;
14316;SDS011;7242;50.858;6.586;2022-08-21T19:23:56;5.13;;;1.63;;
14316;SDS011;7242;50.858;6.586;2022-08-21T19:26:57;4.87;;;1.43;;
14316;SDS011;7242;50.858;6.586;2022-08-21T19:29:58;4.23;;;1.77;;
14316;SDS011;7242;50.858;6.586;2022-08-21T19:33:00;4.70;;;1.60;;
14316;SDS011;7242;50.858;6.586;2022-08-21T19:36:00;3.63;;;1.40;;
14316;SDS011;7242;50.858;6.586;2022-08-21T19:39:02;4.30;;;1.53;;
14316;SDS011;7242;50.858;6.586;2022-08-21T19:42:04;4.87;;;1.87;;
14316;SDS011;7242;50.858;6.586;2022-08-21T19:45:05;5.33;;;1.57;;
14316;SDS011;7242;50.858;6.586;2022-08-21T19:48:07;3.60;;;1.37;;
14316;SDS011;7242;50.858;6.586;2022-08-21T19:51:08;3.63;;;1.33;;
14316;SDS011;7242;50.858;6.586;2022-08-21T19:54:14;3.47;;;1.50;;
14316;SDS011;7242;50.858;6.586;2022-08-21T19:57:22;4.50;;;1.50;;
14316;SDS011;7242;50.858;6.586;2022-08-21T20:00:23;5.97;;;1.50;;
14316;SDS011;7242;50.858;6.586;2022-08-21T20:03:24;5.13;;;1.77;;